Aviation Digital Data Service (ADDS)

Output produced by METARs form (0014 UTC 05 July 2022)
found at http://www.aviationweather.gov/metar/data/
 
METAR text: OIFM 050000Z 23004KT 5000 DU NSC 20/04 Q1012 A2991
Conditions at: OIFM (ESFAHAN S B INTL, IR) observed 0000 UTC 05 July 2022
Temperature: 20.0°C (68°F)
Dewpoint: 4.0°C (39°F) [RH = 35%]
Pressure (altimeter): 29.88 inches Hg (1012.0 mb)
Winds: from the SW (230 degrees) at 5 MPH (4 knots; 2.1 m/s)
Visibility: 3 miles ( 5 km)
Ceiling: at least 12,000 feet AGL
Clouds: sky clear below 12,000 feet AGL
Weather: DU  (widespread dust)

METAR text: OIFM 042330Z 30002KT 5000 DU NSC 22/05 Q1012 A2991
Conditions at: OIFM (ESFAHAN S B INTL, IR) observed 2330 UTC 04 July 2022
Temperature: 22.0°C (72°F)
Dewpoint: 5.0°C (41°F) [RH = 33%]
Pressure (altimeter): 29.88 inches Hg (1012.0 mb)
Winds: from the WNW (300 degrees) at 2 MPH (2 knots; 1.0 m/s)
Visibility: 3 miles ( 5 km)
Ceiling: at least 12,000 feet AGL
Clouds: sky clear below 12,000 feet AGL
Weather: DU  (widespread dust)

METAR text: OIFM 042300Z 32002KT 5000 DU NSC 22/04 Q1012 A2991
Conditions at: OIFM (ESFAHAN S B INTL, IR) observed 2300 UTC 04 July 2022
Temperature: 22.0°C (72°F)
Dewpoint: 4.0°C (39°F) [RH = 31%]
Pressure (altimeter): 29.88 inches Hg (1012.0 mb)
Winds: from the NW (320 degrees) at 2 MPH (2 knots; 1.0 m/s)
Visibility: 3 miles ( 5 km)
Ceiling: at least 12,000 feet AGL
Clouds: sky clear below 12,000 feet AGL
Weather: DU  (widespread dust)

METAR text: OIFM 042230Z 01002KT 5000 DU NSC 23/05 Q1012 A2991
Conditions at: OIFM (ESFAHAN S B INTL, IR) observed 2230 UTC 04 July 2022
Temperature: 23.0°C (73°F)
Dewpoint: 5.0°C (41°F) [RH = 31%]
Pressure (altimeter): 29.88 inches Hg (1012.0 mb)
Winds: from the N (10 degrees) at 2 MPH (2 knots; 1.0 m/s)
Visibility: 3 miles ( 5 km)
Ceiling: at least 12,000 feet AGL
Clouds: sky clear below 12,000 feet AGL
Weather: DU  (widespread dust)

METAR text: OIFM 042200Z 33004KT 5000 DU NSC 23/05 Q1012 A2990
Conditions at: OIFM (ESFAHAN S B INTL, IR) observed 2200 UTC 04 July 2022
Temperature: 23.0°C (73°F)
Dewpoint: 5.0°C (41°F) [RH = 31%]
Pressure (altimeter): 29.88 inches Hg (1012.0 mb)
Winds: from the NNW (330 degrees) at 5 MPH (4 knots; 2.1 m/s)
Visibility: 3 miles ( 5 km)
Ceiling: at least 12,000 feet AGL
Clouds: sky clear below 12,000 feet AGL
Weather: DU  (widespread dust)

METAR text: OIFM 042130Z 34004KT 5000 DU NSC 24/06 Q1012 A2990
Conditions at: OIFM (ESFAHAN S B INTL, IR) observed 2130 UTC 04 July 2022
Temperature: 24.0°C (75°F)
Dewpoint: 6.0°C (43°F) [RH = 31%]
Pressure (altimeter): 29.88 inches Hg (1012.0 mb)
Winds: from the NNW (340 degrees) at 5 MPH (4 knots; 2.1 m/s)
Visibility: 3 miles ( 5 km)
Ceiling: at least 12,000 feet AGL
Clouds: sky clear below 12,000 feet AGL
Weather: DU  (widespread dust)

METAR text: OIFM 042100Z 02010KT 5000 DU NSC 26/06 Q1012 A2989
Conditions at: OIFM (ESFAHAN S B INTL, IR) observed 2100 UTC 04 July 2022
Temperature: 26.0°C (79°F)
Dewpoint: 6.0°C (43°F) [RH = 28%]
Pressure (altimeter): 29.88 inches Hg (1012.0 mb)
Winds: from the NNE (20 degrees) at 12 MPH (10 knots; 5.1 m/s)
Visibility: 3 miles ( 5 km)
Ceiling: at least 12,000 feet AGL
Clouds: sky clear below 12,000 feet AGL
Weather: DU  (widespread dust)

METAR text: OIFM 042030Z 03006KT 5000 DU NSC 26/06 Q1012 A2989
Conditions at: OIFM (ESFAHAN S B INTL, IR) observed 2030 UTC 04 July 2022
Temperature: 26.0°C (79°F)
Dewpoint: 6.0°C (43°F) [RH = 28%]
Pressure (altimeter): 29.88 inches Hg (1012.0 mb)
Winds: from the NNE (30 degrees) at 7 MPH (6 knots; 3.1 m/s)
Visibility: 3 miles ( 5 km)
Ceiling: at least 12,000 feet AGL
Clouds: sky clear below 12,000 feet AGL
Weather: DU  (widespread dust)

METAR text: OIFM 042000Z 11002KT 5000 DU NSC 27/06 Q1012 A2989
Conditions at: OIFM (ESFAHAN S B INTL, IR) observed 2000 UTC 04 July 2022
Temperature: 27.0°C (81°F)
Dewpoint: 6.0°C (43°F) [RH = 26%]
Pressure (altimeter): 29.88 inches Hg (1012.0 mb)
Winds: from the ESE (110 degrees) at 2 MPH (2 knots; 1.0 m/s)
Visibility: 3 miles ( 5 km)
Ceiling: at least 12,000 feet AGL
Clouds: sky clear below 12,000 feet AGL
Weather: DU  (widespread dust)

METAR text: OIFM 041930Z 06012KT 5000 DU NSC 27/06 Q1011 A2988
Conditions at: OIFM (ESFAHAN S B INTL, IR) observed 1930 UTC 04 July 2022
Temperature: 27.0°C (81°F)
Dewpoint: 6.0°C (43°F) [RH = 26%]
Pressure (altimeter): 29.85 inches Hg (1011.0 mb)
Winds: from the ENE (60 degrees) at 14 MPH (12 knots; 6.2 m/s)
Visibility: 3 miles ( 5 km)
Ceiling: at least 12,000 feet AGL
Clouds: sky clear below 12,000 feet AGL
Weather: DU  (widespread dust)

METAR text: OIFM 041900Z 06016KT 5000 DU NSC 27/06 Q1011 A2986
Conditions at: OIFM (ESFAHAN S B INTL, IR) observed 1900 UTC 04 July 2022
Temperature: 27.0°C (81°F)
Dewpoint: 6.0°C (43°F) [RH = 26%]
Pressure (altimeter): 29.85 inches Hg (1011.0 mb)
Winds: from the ENE (60 degrees) at 18 MPH (16 knots; 8.2 m/s)
Visibility: 3 miles ( 5 km)
Ceiling: at least 12,000 feet AGL
Clouds: sky clear below 12,000 feet AGL
Weather: DU  (widespread dust)

METAR text: OIFM 041830Z 05016KT 5000 DU NSC 28/06 Q1011 A2986
Conditions at: OIFM (ESFAHAN S B INTL, IR) observed 1830 UTC 04 July 2022
Temperature: 28.0°C (82°F)
Dewpoint: 6.0°C (43°F) [RH = 25%]
Pressure (altimeter): 29.85 inches Hg (1011.0 mb)
Winds: from the NE (50 degrees) at 18 MPH (16 knots; 8.2 m/s)
Visibility: 3 miles ( 5 km)
Ceiling: at least 12,000 feet AGL
Clouds: sky clear below 12,000 feet AGL
Weather: DU  (widespread dust)

METAR text: OIFM 041800Z 06018KT 4000 DU NSC 28/06 Q1010 A2984
Conditions at: OIFM (ESFAHAN S B INTL, IR) observed 1800 UTC 04 July 2022
Temperature: 28.0°C (82°F)
Dewpoint: 6.0°C (43°F) [RH = 25%]
Pressure (altimeter): 29.82 inches Hg (1010.0 mb)
Winds: from the ENE (60 degrees) at 21 MPH (18 knots; 9.3 m/s)
Visibility: 2.49 miles (4.01 km)
Ceiling: at least 12,000 feet AGL
Clouds: sky clear below 12,000 feet AGL
Weather: DU  (widespread dust)

METAR text: OIFM 041730Z 04023KT 2500 DU NSC 28/06 Q1010 A2983
Conditions at: OIFM (ESFAHAN S B INTL, IR) observed 1730 UTC 04 July 2022
Temperature: 28.0°C (82°F)
Dewpoint: 6.0°C (43°F) [RH = 25%]
Pressure (altimeter): 29.82 inches Hg (1010.0 mb)
Winds: from the NE (40 degrees) at 26 MPH (23 knots; 11.8 m/s)
Visibility: 1.55 miles (2.49 km)
Ceiling: at least 12,000 feet AGL
Clouds: sky clear below 12,000 feet AGL
Weather: DU  (widespread dust)

METAR text: OIFM 041700Z 03025KT 2000 SA DU NSC 28/06 Q1009 A2981
Conditions at: OIFM (ESFAHAN S B INTL, IR) observed 1700 UTC 04 July 2022
Temperature: 28.0°C (82°F)
Dewpoint: 6.0°C (43°F) [RH = 25%]
Pressure (altimeter): 29.79 inches Hg (1009.0 mb)
Winds: from the NNE (30 degrees) at 29 MPH (25 knots; 12.9 m/s)
Visibility: 1.24 miles (2.00 km)
Ceiling: at least 12,000 feet AGL
Clouds: sky clear below 12,000 feet AGL
Weather: SA DU  (sand, widespread dust)

METAR text: OIFM 041630Z 04021KT 1200 R25/P2000 SA DU NSC 29/07 Q1009 A2980
Conditions at: OIFM (ESFAHAN S B INTL, IR) observed 1630 UTC 04 July 2022
Temperature: 29.0°C (84°F)
Dewpoint: 7.0°C (45°F) [RH = 25%]
Pressure (altimeter): 29.79 inches Hg (1009.0 mb)
Winds: from the NE (40 degrees) at 24 MPH (21 knots; 10.8 m/s)
Visibility: 0.75 miles (1.21 km)
Ceiling: at least 12,000 feet AGL
Clouds: sky clear below 12,000 feet AGL
Weather: SA DU  (sand, widespread dust)

METAR text: OIFM 041600Z 04023KT 0800 R25/P2000 SA DU NSC 29/07 Q1008 A2978
Conditions at: OIFM (ESFAHAN S B INTL, IR) observed 1600 UTC 04 July 2022
Temperature: 29.0°C (84°F)
Dewpoint: 7.0°C (45°F) [RH = 25%]
Pressure (altimeter): 29.76 inches Hg (1008.0 mb)
Winds: from the NE (40 degrees) at 26 MPH (23 knots; 11.8 m/s)
Visibility: 0.50 miles (0.80 km)
Ceiling: at least 12,000 feet AGL
Clouds: sky clear below 12,000 feet AGL
Weather: SA DU  (sand, widespread dust)

METAR text: OIFM 041530Z 03027KT 0800 R25/P2000 SA NSC 30/07 Q1008 A2977
Conditions at: OIFM (ESFAHAN S B INTL, IR) observed 1530 UTC 04 July 2022
Temperature: 30.0°C (86°F)
Dewpoint: 7.0°C (45°F) [RH = 24%]
Pressure (altimeter): 29.76 inches Hg (1008.0 mb)
Winds: from the NNE (30 degrees) at 31 MPH (27 knots; 13.9 m/s)
Visibility: 0.50 miles (0.80 km)
Ceiling: at least 12,000 feet AGL
Clouds: sky clear below 12,000 feet AGL
Weather: SA  (sand)

METAR text: OIFM 041500Z 04027KT 1500 SA NSC 31/07 Q1007 A2975
Conditions at: OIFM (ESFAHAN S B INTL, IR) observed 1500 UTC 04 July 2022
Temperature: 31.0°C (88°F)
Dewpoint: 7.0°C (45°F) [RH = 22%]
Pressure (altimeter): 29.73 inches Hg (1007.0 mb)
Winds: from the NE (40 degrees) at 31 MPH (27 knots; 13.9 m/s)
Visibility: 0.93 miles (1.50 km)
Ceiling: at least 12,000 feet AGL
Clouds: sky clear below 12,000 feet AGL
Weather: SA  (sand)

METAR text: OIFM 041430Z 04023KT 1200 R25/1800U SA NSC 32/06 Q1007 A2974
Conditions at: OIFM (ESFAHAN S B INTL, IR) observed 1430 UTC 04 July 2022
Temperature: 32.0°C (90°F)
Dewpoint: 6.0°C (43°F) [RH = 20%]
Pressure (altimeter): 29.73 inches Hg (1007.0 mb)
Winds: from the NE (40 degrees) at 26 MPH (23 knots; 11.8 m/s)
Visibility: 0.75 miles (1.21 km)
Ceiling: at least 12,000 feet AGL
Clouds: sky clear below 12,000 feet AGL
Weather: SA  (sand)

METAR text: OIFM 041400Z 999 // BKN006 BKN012 25/25 Q1011
Conditions at: OIFM (ESFAHAN S B INTL, IR) observed 1400 UTC 04 July 2022
Temperature: 25.0°C (77°F)
Dewpoint: 25.0°C (77°F) [RH = 100%]
Pressure (altimeter): 29.85 inches Hg (1011.0 mb)
Winds: missing
Visibility: missing
Ceiling: 600 feet AGL
Clouds: broken clouds at 600 feet AGL
broken clouds at 1200 feet AGL
Weather: no significant weather observed at this time

METAR text: OIFM 041330Z 05021KT 1300 R25/1400U SA NSC 33/07 Q1006 A2973
Conditions at: OIFM (ESFAHAN S B INTL, IR) observed 1330 UTC 04 July 2022
Temperature: 33.0°C (91°F)
Dewpoint: 7.0°C (45°F) [RH = 20%]
Pressure (altimeter): 29.70 inches Hg (1006.0 mb)
Winds: from the NE (50 degrees) at 24 MPH (21 knots; 10.8 m/s)
Visibility: 0.81 miles (1.30 km)
Ceiling: at least 12,000 feet AGL
Clouds: sky clear below 12,000 feet AGL
Weather: SA  (sand)

METAR text: OIFM 041300Z 05025KT 1800 SA NSC 34/07 Q1006 A2973
Conditions at: OIFM (ESFAHAN S B INTL, IR) observed 1300 UTC 04 July 2022
Temperature: 34.0°C (93°F)
Dewpoint: 7.0°C (45°F) [RH = 19%]
Pressure (altimeter): 29.70 inches Hg (1006.0 mb)
Winds: from the NE (50 degrees) at 29 MPH (25 knots; 12.9 m/s)
Visibility: 1.12 miles (1.80 km)
Ceiling: at least 12,000 feet AGL
Clouds: sky clear below 12,000 feet AGL
Weather: SA  (sand)

METAR text: OIFM 041230Z 04021KT 1800 SA NSC 36/07 Q1006 A2973
Conditions at: OIFM (ESFAHAN S B INTL, IR) observed 1230 UTC 04 July 2022
Temperature: 36.0°C (97°F)
Dewpoint: 7.0°C (45°F) [RH = 17%]
Pressure (altimeter): 29.70 inches Hg (1006.0 mb)
Winds: from the NE (40 degrees) at 24 MPH (21 knots; 10.8 m/s)
Visibility: 1.12 miles (1.80 km)
Ceiling: at least 12,000 feet AGL
Clouds: sky clear below 12,000 feet AGL
Weather: SA  (sand)

METAR text: OIFM 041200Z 02019KT 2000 SA NSC 36/06 Q1007 A2974
Conditions at: OIFM (ESFAHAN S B INTL, IR) observed 1200 UTC 04 July 2022
Temperature: 36.0°C (97°F)
Dewpoint: 6.0°C (43°F) [RH = 16%]
Pressure (altimeter): 29.73 inches Hg (1007.0 mb)
Winds: from the NNE (20 degrees) at 22 MPH (19 knots; 9.8 m/s)
Visibility: 1.24 miles (2.00 km)
Ceiling: at least 12,000 feet AGL
Clouds: sky clear below 12,000 feet AGL
Weather: SA  (sand)

METAR text: OIFM 041130Z 33010KT 4000 DU NSC 37/05 Q1007 A2974
Conditions at: OIFM (ESFAHAN S B INTL, IR) observed 1130 UTC 04 July 2022
Temperature: 37.0°C (99°F)
Dewpoint: 5.0°C (41°F) [RH = 14%]
Pressure (altimeter): 29.73 inches Hg (1007.0 mb)
Winds: from the NNW (330 degrees) at 12 MPH (10 knots; 5.1 m/s)
Visibility: 2.49 miles (4.01 km)
Ceiling: at least 12,000 feet AGL
Clouds: sky clear below 12,000 feet AGL
Weather: DU  (widespread dust)

METAR text: OIFM 041100Z 31006KT 4000 DU NSC 36/04 Q1007 A2976
Conditions at: OIFM (ESFAHAN S B INTL, IR) observed 1100 UTC 04 July 2022
Temperature: 36.0°C (97°F)
Dewpoint: 4.0°C (39°F) [RH = 14%]
Pressure (altimeter): 29.73 inches Hg (1007.0 mb)
Winds: from the NW (310 degrees) at 7 MPH (6 knots; 3.1 m/s)
Visibility: 2.49 miles (4.01 km)
Ceiling: at least 12,000 feet AGL
Clouds: sky clear below 12,000 feet AGL
Weather: DU  (widespread dust)

METAR text: OIFM 041030Z 13002KT 4000 DU NSC 36/04 Q1007 A2976
Conditions at: OIFM (ESFAHAN S B INTL, IR) observed 1030 UTC 04 July 2022
Temperature: 36.0°C (97°F)
Dewpoint: 4.0°C (39°F) [RH = 14%]
Pressure (altimeter): 29.73 inches Hg (1007.0 mb)
Winds: from the SE (130 degrees) at 2 MPH (2 knots; 1.0 m/s)
Visibility: 2.49 miles (4.01 km)
Ceiling: at least 12,000 feet AGL
Clouds: sky clear below 12,000 feet AGL
Weather: DU  (widespread dust)

METAR text: OIFM 0414999 // BKN006 BKN012 25/25 Q1011
Conditions at: OIFM (ESFAHAN S B INTL, IR) observed 1011 UTC 04 July 2022
Temperature: 25.0°C (77°F)
Dewpoint: 25.0°C (77°F) [RH = 100%]
Pressure (altimeter): missing
Winds: from the NE (41 degrees) at 56 MPH (49 knots; 25.2 m/s)
Visibility: missing
Ceiling: 600 feet AGL
Clouds: broken clouds at 600 feet AGL
broken clouds at 1200 feet AGL
Weather: no significant weather observed at this time

METAR text: OIFM 041000Z 09004KT 4000 DU NSC 36/05 Q1008 A2978
Conditions at: OIFM (ESFAHAN S B INTL, IR) observed 1000 UTC 04 July 2022
Temperature: 36.0°C (97°F)
Dewpoint: 5.0°C (41°F) [RH = 15%]
Pressure (altimeter): 29.76 inches Hg (1008.0 mb)
Winds: from the E (90 degrees) at 5 MPH (4 knots; 2.1 m/s)
Visibility: 2.49 miles (4.01 km)
Ceiling: at least 12,000 feet AGL
Clouds: sky clear below 12,000 feet AGL
Weather: DU  (widespread dust)

METAR text: OIFM 040930Z 10002KT 3000 DU NSC 35/03 Q1008 A2979
Conditions at: OIFM (ESFAHAN S B INTL, IR) observed 0930 UTC 04 July 2022
Temperature: 35.0°C (95°F)
Dewpoint: 3.0°C (37°F) [RH = 13%]
Pressure (altimeter): 29.76 inches Hg (1008.0 mb)
Winds: from the E (100 degrees) at 2 MPH (2 knots; 1.0 m/s)
Visibility: 1.86 miles (2.99 km)
Ceiling: at least 12,000 feet AGL
Clouds: sky clear below 12,000 feet AGL
Weather: DU  (widespread dust)

METAR text: OIFM 040900Z 17008KT 3000 DU NSC 35/05 Q1009 A2980
Conditions at: OIFM (ESFAHAN S B INTL, IR) observed 0900 UTC 04 July 2022
Temperature: 35.0°C (95°F)
Dewpoint: 5.0°C (41°F) [RH = 16%]
Pressure (altimeter): 29.79 inches Hg (1009.0 mb)
Winds: from the S (170 degrees) at 9 MPH (8 knots; 4.1 m/s)
Visibility: 1.86 miles (2.99 km)
Ceiling: at least 12,000 feet AGL
Clouds: sky clear below 12,000 feet AGL
Weather: DU  (widespread dust)

METAR text: OIFM 040830Z 22008KT 3000 DU NSC 34/04 Q1009 A2982
Conditions at: OIFM (ESFAHAN S B INTL, IR) observed 0830 UTC 04 July 2022
Temperature: 34.0°C (93°F)
Dewpoint: 4.0°C (39°F) [RH = 15%]
Pressure (altimeter): 29.79 inches Hg (1009.0 mb)
Winds: from the SW (220 degrees) at 9 MPH (8 knots; 4.1 m/s)
Visibility: 1.86 miles (2.99 km)
Ceiling: at least 12,000 feet AGL
Clouds: sky clear below 12,000 feet AGL
Weather: DU  (widespread dust)

METAR text: OIFM 040800Z 10002KT 3000 DU NSC 33/05 Q1010 A2983
Conditions at: OIFM (ESFAHAN S B INTL, IR) observed 0800 UTC 04 July 2022
Temperature: 33.0°C (91°F)
Dewpoint: 5.0°C (41°F) [RH = 17%]
Pressure (altimeter): 29.82 inches Hg (1010.0 mb)
Winds: from the E (100 degrees) at 2 MPH (2 knots; 1.0 m/s)
Visibility: 1.86 miles (2.99 km)
Ceiling: at least 12,000 feet AGL
Clouds: sky clear below 12,000 feet AGL
Weather: DU  (widespread dust)

METAR text: OIFM 040730Z 15008KT 3000 DU NSC 33/06 Q1010 A2983
Conditions at: OIFM (ESFAHAN S B INTL, IR) observed 0730 UTC 04 July 2022
Temperature: 33.0°C (91°F)
Dewpoint: 6.0°C (43°F) [RH = 19%]
Pressure (altimeter): 29.82 inches Hg (1010.0 mb)
Winds: from the SSE (150 degrees) at 9 MPH (8 knots; 4.1 m/s)
Visibility: 1.86 miles (2.99 km)
Ceiling: at least 12,000 feet AGL
Clouds: sky clear below 12,000 feet AGL
Weather: DU  (widespread dust)

METAR text: OIFM 040700Z 25002KT 3000 DU NSC 32/05 Q1010 A2984
Conditions at: OIFM (ESFAHAN S B INTL, IR) observed 0700 UTC 04 July 2022
Temperature: 32.0°C (90°F)
Dewpoint: 5.0°C (41°F) [RH = 18%]
Pressure (altimeter): 29.82 inches Hg (1010.0 mb)
Winds: from the WSW (250 degrees) at 2 MPH (2 knots; 1.0 m/s)
Visibility: 1.86 miles (2.99 km)
Ceiling: at least 12,000 feet AGL
Clouds: sky clear below 12,000 feet AGL
Weather: DU  (widespread dust)

METAR text: OIFM 040630Z 04004KT 3000 DU NSC 31/06 Q1010 A2983
Conditions at: OIFM (ESFAHAN S B INTL, IR) observed 0630 UTC 04 July 2022
Temperature: 31.0°C (88°F)
Dewpoint: 6.0°C (43°F) [RH = 21%]
Pressure (altimeter): 29.82 inches Hg (1010.0 mb)
Winds: from the NE (40 degrees) at 5 MPH (4 knots; 2.1 m/s)
Visibility: 1.86 miles (2.99 km)
Ceiling: at least 12,000 feet AGL
Clouds: sky clear below 12,000 feet AGL
Weather: DU  (widespread dust)

METAR text: OIFM 040600Z 09004KT 3000 DU NSC 31/05 Q1010 A2983
Conditions at: OIFM (ESFAHAN S B INTL, IR) observed 0600 UTC 04 July 2022
Temperature: 31.0°C (88°F)
Dewpoint: 5.0°C (41°F) [RH = 19%]
Pressure (altimeter): 29.82 inches Hg (1010.0 mb)
Winds: from the E (90 degrees) at 5 MPH (4 knots; 2.1 m/s)
Visibility: 1.86 miles (2.99 km)
Ceiling: at least 12,000 feet AGL
Clouds: sky clear below 12,000 feet AGL
Weather: DU  (widespread dust)

METAR text: OIFM 040530Z 05012KT 5000 DU NSC 31/07 Q1010 A2984
Conditions at: OIFM (ESFAHAN S B INTL, IR) observed 0530 UTC 04 July 2022
Temperature: 31.0°C (88°F)
Dewpoint: 7.0°C (45°F) [RH = 22%]
Pressure (altimeter): 29.82 inches Hg (1010.0 mb)
Winds: from the NE (50 degrees) at 14 MPH (12 knots; 6.2 m/s)
Visibility: 3 miles ( 5 km)
Ceiling: at least 12,000 feet AGL
Clouds: sky clear below 12,000 feet AGL
Weather: DU  (widespread dust)

METAR text: OIFM 040500Z 03012KT 5000 DU NSC 29/06 Q1010 A2984
Conditions at: OIFM (ESFAHAN S B INTL, IR) observed 0500 UTC 04 July 2022
Temperature: 29.0°C (84°F)
Dewpoint: 6.0°C (43°F) [RH = 23%]
Pressure (altimeter): 29.82 inches Hg (1010.0 mb)
Winds: from the NNE (30 degrees) at 14 MPH (12 knots; 6.2 m/s)
Visibility: 3 miles ( 5 km)
Ceiling: at least 12,000 feet AGL
Clouds: sky clear below 12,000 feet AGL
Weather: DU  (widespread dust)

METAR text: OIFM 040430Z 02008KT 5000 DU NSC 29/07 Q1010 A2984
Conditions at: OIFM (ESFAHAN S B INTL, IR) observed 0430 UTC 04 July 2022
Temperature: 29.0°C (84°F)
Dewpoint: 7.0°C (45°F) [RH = 25%]
Pressure (altimeter): 29.82 inches Hg (1010.0 mb)
Winds: from the NNE (20 degrees) at 9 MPH (8 knots; 4.1 m/s)
Visibility: 3 miles ( 5 km)
Ceiling: at least 12,000 feet AGL
Clouds: sky clear below 12,000 feet AGL
Weather: DU  (widespread dust)

METAR text: OIFM 040400Z 35006KT 5000 DU NSC 27/07 Q1010 A2984
Conditions at: OIFM (ESFAHAN S B INTL, IR) observed 0400 UTC 04 July 2022
Temperature: 27.0°C (81°F)
Dewpoint: 7.0°C (45°F) [RH = 28%]
Pressure (altimeter): 29.82 inches Hg (1010.0 mb)
Winds: from the N (350 degrees) at 7 MPH (6 knots; 3.1 m/s)
Visibility: 3 miles ( 5 km)
Ceiling: at least 12,000 feet AGL
Clouds: sky clear below 12,000 feet AGL
Weather: DU  (widespread dust)

METAR text: OIFM 040330Z 32004KT 5000 DU NSC 26/05 Q1010 A2984
Conditions at: OIFM (ESFAHAN S B INTL, IR) observed 0330 UTC 04 July 2022
Temperature: 26.0°C (79°F)
Dewpoint: 5.0°C (41°F) [RH = 26%]
Pressure (altimeter): 29.82 inches Hg (1010.0 mb)
Winds: from the NW (320 degrees) at 5 MPH (4 knots; 2.1 m/s)
Visibility: 3 miles ( 5 km)
Ceiling: at least 12,000 feet AGL
Clouds: sky clear below 12,000 feet AGL
Weather: DU  (widespread dust)

METAR text: OIFM 040300Z 28004KT 4000 DU NSC 22/05 Q1010 A2982
Conditions at: OIFM (ESFAHAN S B INTL, IR) observed 0300 UTC 04 July 2022
Temperature: 22.0°C (72°F)
Dewpoint: 5.0°C (41°F) [RH = 33%]
Pressure (altimeter): 29.82 inches Hg (1010.0 mb)
Winds: from the W (280 degrees) at 5 MPH (4 knots; 2.1 m/s)
Visibility: 2.49 miles (4.01 km)
Ceiling: at least 12,000 feet AGL
Clouds: sky clear below 12,000 feet AGL
Weather: DU  (widespread dust)

METAR text: OIFM 040230Z 36004KT 4000 DU NSC 22/05 Q1009 A2982
Conditions at: OIFM (ESFAHAN S B INTL, IR) observed 0230 UTC 04 July 2022
Temperature: 22.0°C (72°F)
Dewpoint: 5.0°C (41°F) [RH = 33%]
Pressure (altimeter): 29.79 inches Hg (1009.0 mb)
Winds: from the N (360 degrees) at 5 MPH (4 knots; 2.1 m/s)
Visibility: 2.49 miles (4.01 km)
Ceiling: at least 12,000 feet AGL
Clouds: sky clear below 12,000 feet AGL
Weather: DU  (widespread dust)

METAR text: OIFM 040200Z 30004KT 3000 DU NSC 21/05 Q1009 A2981
Conditions at: OIFM (ESFAHAN S B INTL, IR) observed 0200 UTC 04 July 2022
Temperature: 21.0°C (70°F)
Dewpoint: 5.0°C (41°F) [RH = 35%]
Pressure (altimeter): 29.79 inches Hg (1009.0 mb)
Winds: from the WNW (300 degrees) at 5 MPH (4 knots; 2.1 m/s)
Visibility: 1.86 miles (2.99 km)
Ceiling: at least 12,000 feet AGL
Clouds: sky clear below 12,000 feet AGL
Weather: DU  (widespread dust)

METAR text: OIFM 040130Z 29006KT 2000 DU NSC 22/05 Q1009 A2980
Conditions at: OIFM (ESFAHAN S B INTL, IR) observed 0130 UTC 04 July 2022
Temperature: 22.0°C (72°F)
Dewpoint: 5.0°C (41°F) [RH = 33%]
Pressure (altimeter): 29.79 inches Hg (1009.0 mb)
Winds: from the WNW (290 degrees) at 7 MPH (6 knots; 3.1 m/s)
Visibility: 1.24 miles (2.00 km)
Ceiling: at least 12,000 feet AGL
Clouds: sky clear below 12,000 feet AGL
Weather: DU  (widespread dust)

METAR text: OIFM 040100Z 31004KT 3000 DU NSC 22/05 Q1008 A2978
Conditions at: OIFM (ESFAHAN S B INTL, IR) observed 0100 UTC 04 July 2022
Temperature: 22.0°C (72°F)
Dewpoint: 5.0°C (41°F) [RH = 33%]
Pressure (altimeter): 29.76 inches Hg (1008.0 mb)
Winds: from the NW (310 degrees) at 5 MPH (4 knots; 2.1 m/s)
Visibility: 1.86 miles (2.99 km)
Ceiling: at least 12,000 feet AGL
Clouds: sky clear below 12,000 feet AGL
Weather: DU  (widespread dust)

METAR text: OIFM 040030Z 29006KT 3000 DU NSC 23/05 Q1008 A2978
Conditions at: OIFM (ESFAHAN S B INTL, IR) observed 0030 UTC 04 July 2022
Temperature: 23.0°C (73°F)
Dewpoint: 5.0°C (41°F) [RH = 31%]
Pressure (altimeter): 29.76 inches Hg (1008.0 mb)
Winds: from the WNW (290 degrees) at 7 MPH (6 knots; 3.1 m/s)
Visibility: 1.86 miles (2.99 km)
Ceiling: at least 12,000 feet AGL
Clouds: sky clear below 12,000 feet AGL
Weather: DU  (widespread dust)

METAR text: OIFM 040000Z 28004KT 4000 DU NSC 25/05 Q1008 A2978
Conditions at: OIFM (ESFAHAN S B INTL, IR) observed 0000 UTC 04 July 2022
Temperature: 25.0°C (77°F)
Dewpoint: 5.0°C (41°F) [RH = 28%]
Pressure (altimeter): 29.76 inches Hg (1008.0 mb)
Winds: from the W (280 degrees) at 5 MPH (4 knots; 2.1 m/s)
Visibility: 2.49 miles (4.01 km)
Ceiling: at least 12,000 feet AGL
Clouds: sky clear below 12,000 feet AGL
Weather: DU  (widespread dust)

METAR text: OIFM 032330Z 00000KT 3000 DU NSC 25/05 Q1007 A2976
Conditions at: OIFM (ESFAHAN S B INTL, IR) observed 2330 UTC 03 July 2022
Temperature: 25.0°C (77°F)
Dewpoint: 5.0°C (41°F) [RH = 28%]
Pressure (altimeter): 29.73 inches Hg (1007.0 mb)
Winds: calm
Visibility: 1.86 miles (2.99 km)
Ceiling: at least 12,000 feet AGL
Clouds: sky clear below 12,000 feet AGL
Weather: DU  (widespread dust)

METAR text: OIFM 032300Z 01006KT 3000 DU NSC 26/06 Q1007 A2976
Conditions at: OIFM (ESFAHAN S B INTL, IR) observed 2300 UTC 03 July 2022
Temperature: 26.0°C (79°F)
Dewpoint: 6.0°C (43°F) [RH = 28%]
Pressure (altimeter): 29.73 inches Hg (1007.0 mb)
Winds: from the N (10 degrees) at 7 MPH (6 knots; 3.1 m/s)
Visibility: 1.86 miles (2.99 km)
Ceiling: at least 12,000 feet AGL
Clouds: sky clear below 12,000 feet AGL
Weather: DU  (widespread dust)

METAR text: OIFM 032230Z 01004KT 4000 DU NSC 26/05 Q1008 A2977
Conditions at: OIFM (ESFAHAN S B INTL, IR) observed 2230 UTC 03 July 2022
Temperature: 26.0°C (79°F)
Dewpoint: 5.0°C (41°F) [RH = 26%]
Pressure (altimeter): 29.76 inches Hg (1008.0 mb)
Winds: from the N (10 degrees) at 5 MPH (4 knots; 2.1 m/s)
Visibility: 2.49 miles (4.01 km)
Ceiling: at least 12,000 feet AGL
Clouds: sky clear below 12,000 feet AGL
Weather: DU  (widespread dust)

METAR text: OIFM 032200Z 36010KT 3000 DU NSC 27/05 Q1008 A2977
Conditions at: OIFM (ESFAHAN S B INTL, IR) observed 2200 UTC 03 July 2022
Temperature: 27.0°C (81°F)
Dewpoint: 5.0°C (41°F) [RH = 24%]
Pressure (altimeter): 29.76 inches Hg (1008.0 mb)
Winds: from the N (360 degrees) at 12 MPH (10 knots; 5.1 m/s)
Visibility: 1.86 miles (2.99 km)
Ceiling: at least 12,000 feet AGL
Clouds: sky clear below 12,000 feet AGL
Weather: DU  (widespread dust)

METAR text: OIFM 032130Z 35004KT 2000 DU NSC 27/05 Q1008 A2977
Conditions at: OIFM (ESFAHAN S B INTL, IR) observed 2130 UTC 03 July 2022
Temperature: 27.0°C (81°F)
Dewpoint: 5.0°C (41°F) [RH = 24%]
Pressure (altimeter): 29.76 inches Hg (1008.0 mb)
Winds: from the N (350 degrees) at 5 MPH (4 knots; 2.1 m/s)
Visibility: 1.24 miles (2.00 km)
Ceiling: at least 12,000 feet AGL
Clouds: sky clear below 12,000 feet AGL
Weather: DU  (widespread dust)

METAR text: OIFM 032100Z 33004KT 1500 DU NSC 27/05 Q1007 A2976
Conditions at: OIFM (ESFAHAN S B INTL, IR) observed 2100 UTC 03 July 2022
Temperature: 27.0°C (81°F)
Dewpoint: 5.0°C (41°F) [RH = 24%]
Pressure (altimeter): 29.73 inches Hg (1007.0 mb)
Winds: from the NNW (330 degrees) at 5 MPH (4 knots; 2.1 m/s)
Visibility: 0.93 miles (1.50 km)
Ceiling: at least 12,000 feet AGL
Clouds: sky clear below 12,000 feet AGL
Weather: DU  (widespread dust)

METAR text: OIFM 032030Z 05006KT 1500 DU NSC 28/05 Q1007 A2976
Conditions at: OIFM (ESFAHAN S B INTL, IR) observed 2030 UTC 03 July 2022
Temperature: 28.0°C (82°F)
Dewpoint: 5.0°C (41°F) [RH = 23%]
Pressure (altimeter): 29.73 inches Hg (1007.0 mb)
Winds: from the NE (50 degrees) at 7 MPH (6 knots; 3.1 m/s)
Visibility: 0.93 miles (1.50 km)
Ceiling: at least 12,000 feet AGL
Clouds: sky clear below 12,000 feet AGL
Weather: DU  (widespread dust)

METAR text: OIFM 032000Z 27006KT 1500 DU NSC 29/04 Q1007 A2976
Conditions at: OIFM (ESFAHAN S B INTL, IR) observed 2000 UTC 03 July 2022
Temperature: 29.0°C (84°F)
Dewpoint: 4.0°C (39°F) [RH = 20%]
Pressure (altimeter): 29.73 inches Hg (1007.0 mb)
Winds: from the W (270 degrees) at 7 MPH (6 knots; 3.1 m/s)
Visibility: 0.93 miles (1.50 km)
Ceiling: at least 12,000 feet AGL
Clouds: sky clear below 12,000 feet AGL
Weather: DU  (widespread dust)

METAR text: OIFM 031930Z 04016KT 1500 DU NSC 30/02 Q1007 A2975
Conditions at: OIFM (ESFAHAN S B INTL, IR) observed 1930 UTC 03 July 2022
Temperature: 30.0°C (86°F)
Dewpoint: 2.0°C (36°F) [RH = 17%]
Pressure (altimeter): 29.73 inches Hg (1007.0 mb)
Winds: from the NE (40 degrees) at 18 MPH (16 knots; 8.2 m/s)
Visibility: 0.93 miles (1.50 km)
Ceiling: at least 12,000 feet AGL
Clouds: sky clear below 12,000 feet AGL
Weather: DU  (widespread dust)

METAR text: OIFM 031900Z 05019KT 1000 R25/P2000 DU NSC 31/02 Q1007 A2974
Conditions at: OIFM (ESFAHAN S B INTL, IR) observed 1900 UTC 03 July 2022
Temperature: 31.0°C (88°F)
Dewpoint: 2.0°C (36°F) [RH = 16%]
Pressure (altimeter): 29.73 inches Hg (1007.0 mb)
Winds: from the NE (50 degrees) at 22 MPH (19 knots; 9.8 m/s)
Visibility: 0.62 miles (1.00 km)
Ceiling: at least 12,000 feet AGL
Clouds: sky clear below 12,000 feet AGL
Weather: DU  (widespread dust)

METAR text: OIFM 031842Z 02019KT 1000 R25/P2000 DU NSC 31/01 Q1007 A2974
Conditions at: OIFM (ESFAHAN S B INTL, IR) observed 1842 UTC 03 July 2022
Temperature: 31.0°C (88°F)
Dewpoint: 1.0°C (34°F) [RH = 15%]
Pressure (altimeter): 29.73 inches Hg (1007.0 mb)
Winds: from the NNE (20 degrees) at 22 MPH (19 knots; 9.8 m/s)
Visibility: 0.62 miles (1.00 km)
Ceiling: at least 12,000 feet AGL
Clouds: sky clear below 12,000 feet AGL
Weather: DU  (widespread dust)

METAR text: OIFM 031830Z 04019KT 1500 DU NSC 31/02 Q1007 A2974
Conditions at: OIFM (ESFAHAN S B INTL, IR) observed 1830 UTC 03 July 2022
Temperature: 31.0°C (88°F)
Dewpoint: 2.0°C (36°F) [RH = 16%]
Pressure (altimeter): 29.73 inches Hg (1007.0 mb)
Winds: from the NE (40 degrees) at 22 MPH (19 knots; 9.8 m/s)
Visibility: 0.93 miles (1.50 km)
Ceiling: at least 12,000 feet AGL
Clouds: sky clear below 12,000 feet AGL
Weather: DU  (widespread dust)

METAR text: OIFM 031800Z 04019KT 1500 DU NSC 32/01 Q1006 A2973
Conditions at: OIFM (ESFAHAN S B INTL, IR) observed 1800 UTC 03 July 2022
Temperature: 32.0°C (90°F)
Dewpoint: 1.0°C (34°F) [RH = 14%]
Pressure (altimeter): 29.70 inches Hg (1006.0 mb)
Winds: from the NE (40 degrees) at 22 MPH (19 knots; 9.8 m/s)
Visibility: 0.93 miles (1.50 km)
Ceiling: at least 12,000 feet AGL
Clouds: sky clear below 12,000 feet AGL
Weather: DU  (widespread dust)

METAR text: OIFM 031730Z 04019KT 2000 DU NSC 32/02 Q1006 A2971
Conditions at: OIFM (ESFAHAN S B INTL, IR) observed 1730 UTC 03 July 2022
Temperature: 32.0°C (90°F)
Dewpoint: 2.0°C (36°F) [RH = 15%]
Pressure (altimeter): 29.70 inches Hg (1006.0 mb)
Winds: from the NE (40 degrees) at 22 MPH (19 knots; 9.8 m/s)
Visibility: 1.24 miles (2.00 km)
Ceiling: at least 12,000 feet AGL
Clouds: sky clear below 12,000 feet AGL
Weather: DU  (widespread dust)

METAR text: OIFM 031700Z 04014KT 3000 DU NSC 33/02 Q1005 A2970
Conditions at: OIFM (ESFAHAN S B INTL, IR) observed 1700 UTC 03 July 2022
Temperature: 33.0°C (91°F)
Dewpoint: 2.0°C (36°F) [RH = 14%]
Pressure (altimeter): 29.68 inches Hg (1005.0 mb)
Winds: from the NE (40 degrees) at 16 MPH (14 knots; 7.2 m/s)
Visibility: 1.86 miles (2.99 km)
Ceiling: at least 12,000 feet AGL
Clouds: sky clear below 12,000 feet AGL
Weather: DU  (widespread dust)

METAR text: OIFM 031630Z 05014KT 3000 DU NSC 34/01 Q1005 A2968
Conditions at: OIFM (ESFAHAN S B INTL, IR) observed 1630 UTC 03 July 2022
Temperature: 34.0°C (93°F)
Dewpoint: 1.0°C (34°F) [RH = 12%]
Pressure (altimeter): 29.68 inches Hg (1005.0 mb)
Winds: from the NE (50 degrees) at 16 MPH (14 knots; 7.2 m/s)
Visibility: 1.86 miles (2.99 km)
Ceiling: at least 12,000 feet AGL
Clouds: sky clear below 12,000 feet AGL
Weather: DU  (widespread dust)

METAR text: OIFM 031600Z 06023KT 4000 SA NSC 35/02 Q1004 A2966
Conditions at: OIFM (ESFAHAN S B INTL, IR) observed 1600 UTC 03 July 2022
Temperature: 35.0°C (95°F)
Dewpoint: 2.0°C (36°F) [RH = 13%]
Pressure (altimeter): 29.65 inches Hg (1004.0 mb)
Winds: from the ENE (60 degrees) at 26 MPH (23 knots; 11.8 m/s)
Visibility: 2.49 miles (4.01 km)
Ceiling: at least 12,000 feet AGL
Clouds: sky clear below 12,000 feet AGL
Weather: SA  (sand)

METAR text: OIFM 031530Z 06029KT 4000 SA NSC 35/02 Q1004 A2966
Conditions at: OIFM (ESFAHAN S B INTL, IR) observed 1530 UTC 03 July 2022
Temperature: 35.0°C (95°F)
Dewpoint: 2.0°C (36°F) [RH = 13%]
Pressure (altimeter): 29.65 inches Hg (1004.0 mb)
Winds: from the ENE (60 degrees) at 33 MPH (29 knots; 14.9 m/s)
Visibility: 2.49 miles (4.01 km)
Ceiling: at least 12,000 feet AGL
Clouds: sky clear below 12,000 feet AGL
Weather: SA  (sand)

METAR text: OIFM 031500Z 06025KT 3000 SA NSC 37/02 Q1003 A2964
Conditions at: OIFM (ESFAHAN S B INTL, IR) observed 1500 UTC 03 July 2022
Temperature: 37.0°C (99°F)
Dewpoint: 2.0°C (36°F) [RH = 11%]
Pressure (altimeter): 29.62 inches Hg (1003.0 mb)
Winds: from the ENE (60 degrees) at 29 MPH (25 knots; 12.9 m/s)
Visibility: 1.86 miles (2.99 km)
Ceiling: at least 12,000 feet AGL
Clouds: sky clear below 12,000 feet AGL
Weather: SA  (sand)

METAR text: OIFM 031430Z 05023KT 3500 SA NSC 38/02 Q1003 A2963
Conditions at: OIFM (ESFAHAN S B INTL, IR) observed 1430 UTC 03 July 2022
Temperature: 38.0°C (100°F)
Dewpoint: 2.0°C (36°F) [RH = 11%]
Pressure (altimeter): 29.62 inches Hg (1003.0 mb)
Winds: from the NE (50 degrees) at 26 MPH (23 knots; 11.8 m/s)
Visibility: 2.17 miles (3.49 km)
Ceiling: at least 12,000 feet AGL
Clouds: sky clear below 12,000 feet AGL
Weather: SA  (sand)

METAR text: OIFM 031412Z 06023KT 4000 SA NSC 39/01 Q1003 A2963
Conditions at: OIFM (ESFAHAN S B INTL, IR) observed 1412 UTC 03 July 2022
Temperature: 39.0°C (102°F)
Dewpoint: 1.0°C (34°F) [RH =  9%]
Pressure (altimeter): 29.62 inches Hg (1003.0 mb)
Winds: from the ENE (60 degrees) at 26 MPH (23 knots; 11.8 m/s)
Visibility: 2.49 miles (4.01 km)
Ceiling: at least 12,000 feet AGL
Clouds: sky clear below 12,000 feet AGL
Weather: SA  (sand)

METAR text: OIFM 031400Z 11006KT CAVOK 41/M03 Q1003 A2962
Conditions at: OIFM (ESFAHAN S B INTL, IR) observed 1400 UTC 03 July 2022
Temperature: 41.0°C (106°F)
Dewpoint: -3.0°C (27°F) [RH =  6%]
Pressure (altimeter): 29.62 inches Hg (1003.0 mb)
Winds: from the ESE (110 degrees) at 7 MPH (6 knots; 3.1 m/s)
Visibility: 6 or more miles (10+ km)
Ceiling: ceiling and visibility are OK
Clouds: unknown
Weather: no significant weather observed at this time

METAR text: OIFM 031330Z 15010KT CAVOK 41/M03 Q1003 A2962
Conditions at: OIFM (ESFAHAN S B INTL, IR) observed 1330 UTC 03 July 2022
Temperature: 41.0°C (106°F)
Dewpoint: -3.0°C (27°F) [RH =  6%]
Pressure (altimeter): 29.62 inches Hg (1003.0 mb)
Winds: from the SSE (150 degrees) at 12 MPH (10 knots; 5.1 m/s)
Visibility: 6 or more miles (10+ km)
Ceiling: ceiling and visibility are OK
Clouds: unknown
Weather: no significant weather observed at this time

METAR text: OIFM 031300Z 12008KT CAVOK 41/M02 Q1003 A2963
Conditions at: OIFM (ESFAHAN S B INTL, IR) observed 1300 UTC 03 July 2022
Temperature: 41.0°C (106°F)
Dewpoint: -2.0°C (28°F) [RH =  7%]
Pressure (altimeter): 29.62 inches Hg (1003.0 mb)
Winds: from the ESE (120 degrees) at 9 MPH (8 knots; 4.1 m/s)
Visibility: 6 or more miles (10+ km)
Ceiling: ceiling and visibility are OK
Clouds: unknown
Weather: no significant weather observed at this time

METAR text: OIFM 031230Z 09006KT CAVOK 41/M02 Q1003 A2963
Conditions at: OIFM (ESFAHAN S B INTL, IR) observed 1230 UTC 03 July 2022
Temperature: 41.0°C (106°F)
Dewpoint: -2.0°C (28°F) [RH =  7%]
Pressure (altimeter): 29.62 inches Hg (1003.0 mb)
Winds: from the E (90 degrees) at 7 MPH (6 knots; 3.1 m/s)
Visibility: 6 or more miles (10+ km)
Ceiling: ceiling and visibility are OK
Clouds: unknown
Weather: no significant weather observed at this time

Forecast for: OIFM (ESFAHAN S B INTL, IR)
Text: TAF OIFM 042330Z 0500/0606 32008KT 5000 DU NSC
Forecast period: 0000 to 1800 UTC 05 July 2022
Forecast type: FROM: standard forecast or significant change
Winds: from the NW (320 degrees) at 9 MPH (8 knots; 4.1 m/s)
Visibility: 3 miles (5 km)
Ceiling: unknown
Clouds: missing
Weather: DU  (widespread dust)
Text: TEMPO 0511/0518 04024KT 1500 SA DU
Forecast period: 1100 to 1800 UTC 05 July 2022
Forecast type: TEMPORARY: The following changes expected for less than half the time period
Winds: from the NE (40 degrees) at 28 MPH (24 knots; 12.3 m/s)
Visibility: 0.93 miles (1.50 km)
Ceiling: unknown
Clouds: missing
Weather: SA DU  (sand, widespread dust)
Text: BECMG 0518/0520 6000
Forecast period: 1800 UTC 05 July 2022 to 0600 UTC 06 July 2022
Forecast type: BECOMING: Conditions expected to become as follows by 2000 UTC 05 July 2022
Winds: from the NW (320 degrees) at 9 MPH (8 knots; 4.1 m/s)
Visibility: 4 miles (6 km)
Ceiling: unknown
Clouds: missing
Weather: DU  (widespread dust)